createdAt,value
2017-01-11T00:00:23.875Z,-2.3
2017-01-11T00:01:26.849Z,-2.3
2017-01-11T00:02:29.822Z,-2.3
2017-01-11T00:04:36.207Z,-2.3
2017-01-11T00:05:39.181Z,-2.3
2017-01-11T00:06:42.654Z,-2.3
2017-01-11T00:07:45.624Z,-2.3
2017-01-11T00:08:48.592Z,-2.3
2017-01-11T00:09:51.561Z,-2.2
2017-01-11T00:10:55.035Z,-2.3
2017-01-11T00:11:58.003Z,-2.3
2017-01-11T00:13:00.977Z,-2.3
2017-01-11T00:14:04.449Z,-2.3
2017-01-11T00:15:07.417Z,-2.3
2017-01-11T00:16:10.389Z,-2.3
2017-01-11T00:17:13.362Z,-2.2
2017-01-11T00:18:16.838Z,-2.2
2017-01-11T00:19:19.807Z,-2.3
2017-01-11T00:20:22.777Z,-2.3
2017-01-11T00:21:25.748Z,-2.2
2017-01-11T00:22:29.219Z,-2.3
2017-01-11T00:23:32.191Z,-2.3
2017-01-11T00:24:35.157Z,-2.3
2017-01-11T00:25:38.127Z,-2.3
2017-01-11T00:26:41.601Z,-2.3
2017-01-11T00:27:44.570Z,-2.3
2017-01-11T00:28:47.543Z,-2.3
2017-01-11T00:29:51.016Z,-2.3
2017-01-11T00:30:53.984Z,-2.3
2017-01-11T00:31:56.959Z,-2.3
2017-01-11T00:32:59.934Z,-2.3
2017-01-11T00:34:03.407Z,-2.3
2017-01-11T00:35:06.378Z,-2.3
2017-01-11T00:36:09.348Z,-2.3
2017-01-11T00:37:12.320Z,-2.3
2017-01-11T00:38:15.792Z,-2.3
2017-01-11T00:40:21.672Z,-2.3
2017-01-11T00:41:25.144Z,-2.3
2017-01-11T00:42:28.110Z,-2.3
2017-01-11T00:43:31.081Z,-2.2
2017-01-11T00:44:34.078Z,-2.3
2017-01-11T00:45:37.546Z,-2.3
2017-01-11T00:46:40.518Z,-2.2
2017-01-11T00:47:43.488Z,-2.3
2017-01-11T00:48:46.958Z,-2.3
2017-01-11T00:49:49.936Z,-2.3
2017-01-11T00:50:52.907Z,-2.3
2017-01-11T00:52:59.289Z,-2.3
2017-01-11T00:54:02.261Z,-2.3
2017-01-11T00:55:05.234Z,-2.3
2017-01-11T00:56:08.710Z,-2.3
2017-01-11T00:57:11.676Z,-2.3
2017-01-11T00:58:14.648Z,-2.3
2017-01-11T00:59:17.616Z,-2.3
2017-01-11T01:00:21.088Z,-2.3
2017-01-11T01:01:24.071Z,-2.3
2017-01-11T01:02:27.042Z,-2.2
2017-01-11T01:03:30.017Z,-2.3
2017-01-11T01:04:33.491Z,-2.3
2017-01-11T01:05:36.462Z,-2.3
2017-01-11T01:06:39.430Z,-2.3
2017-01-11T01:07:42.901Z,-2.3
2017-01-11T01:08:45.866Z,-2.3
2017-01-11T01:09:48.833Z,-2.3
2017-01-11T01:10:51.806Z,-2.3
2017-01-11T01:12:58.191Z,-2.3
2017-01-11T01:14:01.162Z,-2.3
2017-01-11T01:15:04.634Z,-2.3
2017-01-11T01:16:07.607Z,-2.3
2017-01-11T01:17:10.577Z,-2.3
2017-01-11T01:18:13.545Z,-2.3
2017-01-11T01:19:17.022Z,-2.3
2017-01-11T01:20:19.996Z,-2.3
2017-01-11T01:21:22.971Z,-2.3
2017-01-11T01:22:25.943Z,-2.3
2017-01-11T01:23:29.418Z,-2.3
2017-01-11T01:24:32.390Z,-2.3
2017-01-11T01:25:35.364Z,-2.3
2017-01-11T01:26:38.334Z,-2.3
2017-01-11T01:27:41.808Z,-2.3
2017-01-11T01:28:44.774Z,-2.3
2017-01-11T01:29:47.749Z,-2.3
2017-01-11T01:30:51.226Z,-2.3
2017-01-11T01:31:54.203Z,-2.3
2017-01-11T01:32:57.169Z,-2.3
2017-01-11T01:34:00.159Z,-2.3
2017-01-11T01:35:03.634Z,-2.3
2017-01-11T01:36:06.605Z,-2.3
2017-01-11T01:37:09.584Z,-2.3
2017-01-11T01:38:12.553Z,-2.3
2017-01-11T01:39:16.025Z,-2.3
2017-01-11T01:40:18.995Z,-2.3
2017-01-11T01:41:21.967Z,-2.3
2017-01-11T01:42:24.938Z,-2.3
2017-01-11T01:44:31.322Z,-2.3
2017-01-11T01:45:34.293Z,-2.3
2017-01-11T01:46:37.763Z,-2.3
2017-01-11T01:47:40.733Z,-2.3
2017-01-11T01:48:43.706Z,-2.3
2017-01-11T01:49:47.179Z,-2.3
2017-01-11T01:50:50.150Z,-2.3
2017-01-11T01:51:53.122Z,-2.3
2017-01-11T01:52:56.093Z,-2.3
2017-01-11T01:53:59.566Z,-2.3
2017-01-11T01:55:02.533Z,-2.3
2017-01-11T01:56:05.500Z,-2.3
2017-01-11T01:57:08.468Z,-2.3
2017-01-11T01:58:11.940Z,-2.3
2017-01-11T01:59:14.911Z,-2.3
2017-01-11T02:00:17.878Z,-2.3
2017-01-11T02:01:21.347Z,-2.3
2017-01-11T02:02:24.319Z,-2.3
2017-01-11T02:03:27.293Z,-2.3
2017-01-11T02:04:30.267Z,-2.3
2017-01-11T02:05:33.736Z,-2.3
2017-01-11T02:06:36.708Z,-2.3
2017-01-11T02:07:39.678Z,-2.3
2017-01-11T02:08:43.152Z,-2.3
2017-01-11T02:09:46.126Z,-2.3
2017-01-11T02:10:49.112Z,-2.3
2017-01-11T02:11:52.084Z,-2.3
2017-01-11T02:13:58.466Z,-2.3
2017-01-11T02:15:01.434Z,-2.3
2017-01-11T02:16:04.914Z,-2.3
2017-01-11T02:17:07.886Z,-2.3
2017-01-11T02:18:10.870Z,-2.3
2017-01-11T02:19:13.842Z,-2.3
2017-01-11T02:20:17.315Z,-2.3
2017-01-11T02:21:20.279Z,-2.3
2017-01-11T02:22:23.260Z,-2.3
2017-01-11T02:23:26.235Z,-2.3
2017-01-11T02:24:29.706Z,-2.3
2017-01-11T02:25:32.681Z,-2.3
2017-01-11T02:26:35.654Z,-2.3
2017-01-11T02:27:39.126Z,-2.3
2017-01-11T02:28:42.096Z,-2.3
2017-01-11T02:29:45.071Z,-2.3
2017-01-11T02:30:48.045Z,-2.3
2017-01-11T02:31:51.520Z,-2.3
2017-01-11T02:32:54.492Z,-2.3
2017-01-11T02:33:57.468Z,-2.3
2017-01-11T02:35:00.435Z,-2.3
2017-01-11T02:36:03.908Z,-2.3
2017-01-11T02:37:06.878Z,-2.3
2017-01-11T02:38:09.850Z,-2.3
2017-01-11T02:40:16.235Z,-2.3
2017-01-11T02:41:19.204Z,-2.3
2017-01-11T02:42:22.181Z,-2.3
2017-01-11T02:43:25.651Z,-2.3
2017-01-11T02:44:28.624Z,-2.3
2017-01-11T02:45:31.591Z,-2.3
2017-01-11T02:46:35.059Z,-2.3
2017-01-11T02:47:38.033Z,-2.3
2017-01-11T02:48:41.002Z,-2.3
2017-01-11T02:49:43.969Z,-2.3
2017-01-11T02:50:47.444Z,-2.3
2017-01-11T02:51:50.412Z,-2.3
2017-01-11T02:52:53.385Z,-2.3
2017-01-11T02:54:59.772Z,-2.3
2017-01-11T02:56:02.739Z,-2.3
2017-01-11T02:57:05.964Z,-2.3
2017-01-11T02:58:08.935Z,-2.3
2017-01-11T02:59:12.407Z,-2.3
2017-01-11T03:00:15.376Z,-2.3
2017-01-11T03:01:18.347Z,-2.3
2017-01-11T03:02:21.322Z,-2.3
2017-01-11T03:03:24.792Z,-2.3
2017-01-11T03:04:27.757Z,-2.3
2017-01-11T03:05:30.726Z,-2.3
2017-01-11T03:06:34.204Z,-2.3
2017-01-11T03:07:37.173Z,-2.3
2017-01-11T03:08:40.144Z,-2.3
2017-01-11T03:09:43.117Z,-2.3
2017-01-11T03:10:46.592Z,-2.3
2017-01-11T03:11:49.563Z,-2.3
2017-01-11T03:12:52.536Z,-2.3
2017-01-11T03:13:55.504Z,-2.3
2017-01-11T03:16:01.893Z,-2.4
2017-01-11T03:17:04.863Z,-2.4
2017-01-11T03:18:08.359Z,-2.4
2017-01-11T03:19:11.328Z,-2.4
2017-01-11T03:20:14.299Z,-2.4
2017-01-11T03:21:17.773Z,-2.4
2017-01-11T03:23:23.652Z,-2.4
2017-01-11T03:24:26.631Z,-2.4
2017-01-11T03:25:30.104Z,-2.4
2017-01-11T03:26:33.073Z,-2.4
2017-01-11T03:27:36.045Z,-2.4
2017-01-11T03:28:39.521Z,-2.4
2017-01-11T03:29:42.491Z,-2.4
2017-01-11T03:30:45.467Z,-2.4
2017-01-11T03:31:48.442Z,-2.4
2017-01-11T03:32:51.915Z,-2.4
2017-01-11T03:33:54.887Z,-2.4
2017-01-11T03:34:57.855Z,-2.4
2017-01-11T03:36:01.327Z,-2.4
2017-01-11T03:37:04.299Z,-2.5
2017-01-11T03:38:07.272Z,-2.4
2017-01-11T03:39:10.245Z,-2.4
2017-01-11T03:40:13.715Z,-2.4
2017-01-11T03:42:19.591Z,-2.4
2017-01-11T03:43:23.062Z,-2.3
2017-01-11T03:44:26.035Z,-2.4
2017-01-11T03:45:28.999Z,-2.4
2017-01-11T03:46:31.974Z,-2.4
2017-01-11T03:48:38.357Z,-2.5
2017-01-11T03:49:41.323Z,-2.5
2017-01-11T03:50:44.793Z,-2.4
2017-01-11T03:51:47.764Z,-2.4
2017-01-11T03:52:50.737Z,-2.4
2017-01-11T03:53:54.214Z,-2.4
2017-01-11T03:54:57.182Z,-2.4
2017-01-11T03:56:00.157Z,-2.4
2017-01-11T03:57:03.128Z,-2.4
2017-01-11T03:58:06.599Z,-2.4
2017-01-11T03:59:09.570Z,-2.4
2017-01-11T04:00:12.540Z,-2.4
2017-01-11T04:01:15.510Z,-2.4
2017-01-11T04:02:18.985Z,-2.4
2017-01-11T04:03:21.955Z,-2.4
2017-01-11T04:04:24.921Z,-2.4
2017-01-11T04:05:28.395Z,-2.4
2017-01-11T04:06:31.362Z,-2.4
2017-01-11T04:07:34.328Z,-2.4
2017-01-11T04:08:37.298Z,-2.4
2017-01-11T04:09:40.769Z,-2.4
2017-01-11T04:10:43.741Z,-2.4
2017-01-11T04:11:46.743Z,-2.4
2017-01-11T04:12:49.713Z,-2.4
2017-01-11T04:13:53.187Z,-2.4
2017-01-11T04:14:56.161Z,-2.4
2017-01-11T04:15:59.129Z,-2.4
2017-01-11T04:17:02.604Z,-2.4
2017-01-11T04:18:05.578Z,-2.4
2017-01-11T04:19:08.551Z,-2.4
2017-01-11T04:20:11.516Z,-2.4
2017-01-11T04:21:14.989Z,-2.4
2017-01-11T04:22:17.957Z,-2.4
2017-01-11T04:23:20.932Z,-2.4
2017-01-11T04:24:24.408Z,-2.4
2017-01-11T04:25:27.383Z,-2.4
2017-01-11T04:26:30.353Z,-2.4
2017-01-11T04:27:33.325Z,-2.4
2017-01-11T04:28:36.795Z,-2.4
2017-01-11T04:29:39.770Z,-2.4
2017-01-11T04:30:42.741Z,-2.4
2017-01-11T04:31:45.709Z,-2.4
2017-01-11T04:32:49.182Z,-2.4
2017-01-11T04:33:52.155Z,-2.4
2017-01-11T04:34:55.123Z,-2.4
2017-01-11T04:35:58.599Z,-2.4
2017-01-11T04:37:01.742Z,-2.4
2017-01-11T04:38:04.713Z,-2.5
2017-01-11T04:39:07.682Z,-2.5
2017-01-11T04:40:10.655Z,-2.5
2017-01-11T04:41:14.129Z,-2.4
2017-01-11T04:42:17.099Z,-2.5
2017-01-11T04:43:20.070Z,-2.4
2017-01-11T04:44:23.040Z,-2.4
2017-01-11T04:45:26.517Z,-2.4
2017-01-11T04:46:29.489Z,-2.4
2017-01-11T04:47:32.461Z,-2.4
2017-01-11T04:48:35.933Z,-2.4
2017-01-11T04:50:41.809Z,-2.5
2017-01-11T04:51:44.775Z,-2.5
2017-01-11T04:52:48.249Z,-2.5
2017-01-11T04:53:51.218Z,-2.5
2017-01-11T04:54:54.191Z,-2.5
2017-01-11T04:57:00.575Z,-2.5
2017-01-11T04:58:03.547Z,-2.5
2017-01-11T04:59:07.023Z,-2.5
2017-01-11T05:00:09.991Z,-2.5
2017-01-11T05:01:12.969Z,-2.5
2017-01-11T05:02:15.938Z,-2.5
2017-01-11T05:03:19.413Z,-2.5
2017-01-11T05:04:22.383Z,-2.5
2017-01-11T05:05:25.355Z,-2.5
2017-01-11T05:06:28.594Z,-2.5
2017-01-11T05:07:31.563Z,-2.5
2017-01-11T05:08:35.033Z,-2.5
2017-01-11T05:09:38.003Z,-2.5
2017-01-11T05:10:40.974Z,-2.5
2017-01-11T05:11:43.945Z,-2.5
2017-01-11T05:12:47.417Z,-2.5
2017-01-11T05:13:50.395Z,-2.5
2017-01-11T05:14:53.367Z,-2.5
2017-01-11T05:15:56.337Z,-2.5
2017-01-11T05:16:59.818Z,-2.5
2017-01-11T05:18:02.786Z,-2.5
2017-01-11T05:19:05.756Z,-2.5
2017-01-11T05:20:09.224Z,-2.5
2017-01-11T05:21:12.191Z,-2.5
2017-01-11T05:22:15.159Z,-2.5
2017-01-11T05:23:18.127Z,-2.5
2017-01-11T05:24:21.601Z,-2.5
2017-01-11T05:25:24.600Z,-2.5
2017-01-11T05:26:27.572Z,-2.5
2017-01-11T05:27:30.540Z,-2.5
2017-01-11T05:28:34.010Z,-2.5
2017-01-11T05:29:36.982Z,-2.5
2017-01-11T05:30:39.948Z,-2.5
2017-01-11T05:31:43.422Z,-2.5
2017-01-11T05:32:46.394Z,-2.5
2017-01-11T05:34:52.775Z,-2.5
2017-01-11T05:35:55.751Z,-2.5
2017-01-11T05:36:58.725Z,-2.5
2017-01-11T05:38:01.705Z,-2.5
2017-01-11T05:39:05.174Z,-2.5
2017-01-11T05:40:08.142Z,-2.5
2017-01-11T05:41:11.116Z,-2.5
2017-01-11T05:42:14.084Z,-2.5
2017-01-11T05:43:17.556Z,-2.5
2017-01-11T05:44:20.529Z,-2.5
2017-01-11T05:45:23.501Z,-2.5
2017-01-11T05:46:26.975Z,-2.5
2017-01-11T05:47:29.945Z,-2.5
2017-01-11T05:48:32.925Z,-2.5
2017-01-11T05:49:35.898Z,-2.5
2017-01-11T05:50:39.369Z,-2.5
2017-01-11T05:51:42.338Z,-2.5
2017-01-11T05:52:45.308Z,-2.5
2017-01-11T05:53:48.276Z,-2.5
2017-01-11T05:54:51.744Z,-2.5
2017-01-11T05:55:54.714Z,-2.5
2017-01-11T05:56:57.684Z,-2.5
2017-01-11T05:58:01.154Z,-2.5
2017-01-11T05:59:04.153Z,-2.5
2017-01-11T06:00:07.120Z,-2.5
2017-01-11T06:01:10.090Z,-2.5
2017-01-11T06:02:13.560Z,-2.5
2017-01-11T06:03:16.532Z,-2.5
2017-01-11T06:04:19.500Z,-2.5
2017-01-11T06:05:22.971Z,-2.5
2017-01-11T06:07:28.847Z,-2.5
2017-01-11T06:08:31.817Z,-2.5
2017-01-11T06:09:35.291Z,-2.5
2017-01-11T06:10:38.256Z,-2.5
2017-01-11T06:11:41.219Z,-2.5
2017-01-11T06:12:44.694Z,-2.5
2017-01-11T06:13:47.667Z,-2.5
2017-01-11T06:14:50.638Z,-2.5
2017-01-11T06:15:53.612Z,-2.5
2017-01-11T06:16:57.088Z,-2.5
2017-01-11T06:18:00.060Z,-2.5
2017-01-11T06:19:03.026Z,-2.5
2017-01-11T06:20:06.501Z,-2.5
2017-01-11T06:21:09.474Z,-2.5
2017-01-11T06:22:12.450Z,-2.5
2017-01-11T06:23:15.424Z,-2.5
2017-01-11T06:24:18.893Z,-2.5
2017-01-11T06:25:21.864Z,-2.5
2017-01-11T06:26:24.835Z,-2.4
2017-01-11T06:27:27.805Z,-2.5
2017-01-11T06:28:31.275Z,-2.5
2017-01-11T06:29:34.243Z,-2.5
2017-01-11T06:30:37.216Z,-2.5
2017-01-11T06:31:40.693Z,-2.5
2017-01-11T06:32:43.664Z,-2.5
2017-01-11T06:33:46.629Z,-2.5
2017-01-11T06:34:49.600Z,-2.5
2017-01-11T06:35:53.077Z,-2.5
2017-01-11T06:36:56.044Z,-2.5
2017-01-11T06:37:59.011Z,-2.5
2017-01-11T06:39:02.485Z,-2.5
2017-01-11T06:40:05.455Z,-2.5
2017-01-11T06:41:08.424Z,-2.5
2017-01-11T06:42:11.398Z,-2.5
2017-01-11T06:43:14.871Z,-2.5
2017-01-11T06:44:17.852Z,-2.5
2017-01-11T06:45:20.823Z,-2.5
2017-01-11T06:46:24.297Z,-2.5
2017-01-11T06:47:27.267Z,-2.5
2017-01-11T06:48:30.240Z,-2.5
2017-01-11T06:49:33.212Z,-2.5
2017-01-11T06:50:36.681Z,-2.5
2017-01-11T06:51:39.654Z,-2.5
2017-01-11T06:52:42.628Z,-2.5
2017-01-11T06:53:45.600Z,-2.5
2017-01-11T06:54:49.077Z,-2.5
2017-01-11T06:55:52.044Z,-2.6
2017-01-11T06:56:55.015Z,-2.5
2017-01-11T06:57:58.485Z,-2.5
2017-01-11T06:59:01.457Z,-2.5
2017-01-11T07:00:04.428Z,-2.5
2017-01-11T07:01:07.394Z,-2.5
2017-01-11T07:02:10.863Z,-2.5
2017-01-11T07:03:13.836Z,-2.5
2017-01-11T07:04:16.809Z,-2.5
2017-01-11T07:05:20.284Z,-2.5
2017-01-11T07:06:23.251Z,-2.5
2017-01-11T07:07:26.220Z,-2.5
2017-01-11T07:08:29.190Z,-2.5
2017-01-11T07:09:32.663Z,-2.5
2017-01-11T07:10:35.636Z,-2.5
2017-01-11T07:11:38.610Z,-2.5
2017-01-11T07:12:41.581Z,-2.5
2017-01-11T07:13:45.058Z,-2.5
2017-01-11T07:14:48.031Z,-2.5
2017-01-11T07:15:51.005Z,-2.5
2017-01-11T07:16:54.484Z,-2.5
2017-01-11T07:17:57.463Z,-2.5
2017-01-11T07:19:00.432Z,-2.4
2017-01-11T07:20:03.400Z,-2.4
2017-01-11T07:21:06.871Z,-2.4
2017-01-11T07:22:09.839Z,-2.4
2017-01-11T07:23:12.810Z,-2.4
2017-01-11T07:24:16.286Z,-2.4
2017-01-11T07:25:19.252Z,-2.4
2017-01-11T07:26:22.218Z,-2.4
2017-01-11T07:27:25.220Z,-2.4
2017-01-11T07:29:31.609Z,-2.4
2017-01-11T07:30:34.580Z,-2.4
2017-01-11T07:31:37.716Z,-2.5
2017-01-11T07:33:44.102Z,-2.4
2017-01-11T07:34:47.099Z,-2.4
2017-01-11T07:35:50.074Z,-2.4
2017-01-11T07:36:53.550Z,-2.4
2017-01-11T07:37:56.690Z,-2.4
2017-01-11T07:38:59.666Z,-2.4
2017-01-11T07:40:02.636Z,-2.4
2017-01-11T07:41:06.111Z,-2.4
2017-01-11T07:42:09.084Z,-2.3
2017-01-11T07:43:12.056Z,-2.3
2017-01-11T07:44:15.025Z,-2.3
2017-01-11T07:46:21.401Z,-2.3
2017-01-11T07:47:24.372Z,-2.3
2017-01-11T07:48:27.850Z,-2.3
2017-01-11T07:49:30.820Z,-2.3
2017-01-11T07:50:33.792Z,-2.3
2017-01-11T07:51:37.267Z,-2.3
2017-01-11T07:52:40.238Z,-2.3
2017-01-11T07:53:43.207Z,-2.3
2017-01-11T07:54:46.179Z,-2.3
2017-01-11T07:55:49.655Z,-2.3
2017-01-11T07:56:52.624Z,-2.3
2017-01-11T07:57:55.599Z,-2.3
2017-01-11T07:58:59.075Z,-2.3
2017-01-11T08:00:02.050Z,-2.3
2017-01-11T08:01:05.019Z,-2.3
2017-01-11T08:02:07.986Z,-2.3
2017-01-11T08:03:11.460Z,-2.3
2017-01-11T08:04:14.455Z,-2.3
2017-01-11T08:05:17.424Z,-2.3
2017-01-11T08:06:20.897Z,-2.3
2017-01-11T08:07:23.866Z,-2.3
2017-01-11T08:08:26.834Z,-2.3
2017-01-11T08:09:29.804Z,-2.3
2017-01-11T08:10:33.276Z,-2.3
2017-01-11T08:11:36.245Z,-2.3
2017-01-11T08:12:39.218Z,-2.3
2017-01-11T08:13:42.689Z,-2.3
2017-01-11T08:14:45.659Z,-2.3
2017-01-11T08:15:48.626Z,-2.3
2017-01-11T08:16:51.596Z,-2.3
2017-01-11T08:17:55.070Z,-2.3
2017-01-11T08:18:58.038Z,-2.3
2017-01-11T08:20:01.018Z,-2.3
2017-01-11T08:21:04.493Z,-2.3
2017-01-11T08:22:07.464Z,-2.3
2017-01-11T08:23:10.437Z,-2.3
2017-01-11T08:24:13.404Z,-2.3
2017-01-11T08:25:16.880Z,-2.3
2017-01-11T08:27:22.763Z,-2.3
2017-01-11T08:28:26.236Z,-2.3
2017-01-11T08:29:29.231Z,-2.3
2017-01-11T08:30:32.211Z,-2.3
2017-01-11T08:31:35.686Z,-2.2
2017-01-11T08:32:38.664Z,-2.3
2017-01-11T08:33:41.640Z,-2.2
2017-01-11T08:34:44.612Z,-2.3
2017-01-11T08:35:48.085Z,-2.2
2017-01-11T08:36:51.053Z,-2.2
2017-01-11T08:37:54.022Z,-2.2
2017-01-11T08:38:57.496Z,-2.2
2017-01-11T08:40:00.465Z,-2.2
2017-01-11T08:41:03.436Z,-2.2
2017-01-11T08:42:06.412Z,-2.2
2017-01-11T08:43:09.884Z,-2.2
2017-01-11T08:44:12.858Z,-2.1
2017-01-11T08:45:15.825Z,-2.1
2017-01-11T08:46:19.300Z,-2.1
2017-01-11T08:47:22.266Z,-2.1
2017-01-11T08:48:25.235Z,-2.1
2017-01-11T08:49:28.710Z,-2.1
2017-01-11T08:50:31.680Z,-2.1
2017-01-11T08:51:34.648Z,-2.1
2017-01-11T08:52:37.616Z,-2.1
2017-01-11T08:53:41.085Z,-2.1
2017-01-11T08:54:44.059Z,-2.1
2017-01-11T08:55:47.030Z,-2.1
2017-01-11T08:56:50.504Z,-2.1
2017-01-11T08:57:53.475Z,-2.1
2017-01-11T08:58:56.448Z,-2.1
2017-01-11T08:59:59.913Z,-2.1
2017-01-11T09:01:02.887Z,-2.1
2017-01-11T09:02:05.861Z,-2.1
2017-01-11T09:03:08.832Z,-2.1
2017-01-11T09:04:12.307Z,-2.1
2017-01-11T09:05:15.282Z,-2.1
2017-01-11T09:06:18.253Z,-2.1
2017-01-11T09:08:24.635Z,-2.1
2017-01-11T09:09:27.600Z,-2.1
2017-01-11T09:10:31.069Z,-2.1
2017-01-11T09:11:34.044Z,-2.1
2017-01-11T09:12:37.013Z,-2.1
2017-01-11T09:13:40.484Z,-2.1
2017-01-11T09:14:43.453Z,-2.1
2017-01-11T09:15:46.423Z,-2.1
2017-01-11T09:16:49.899Z,-2.1
2017-01-11T09:17:52.877Z,-2.1
2017-01-11T09:18:55.847Z,-2.1
2017-01-11T09:19:58.819Z,-2.1
2017-01-11T09:21:02.293Z,-2.1
2017-01-11T09:22:05.264Z,-2.1
2017-01-11T09:23:08.235Z,-2.1
2017-01-11T09:24:11.709Z,-2.1
2017-01-11T09:25:14.682Z,-2.1
2017-01-11T09:26:17.651Z,-2.1
2017-01-11T09:27:21.123Z,-2.1
2017-01-11T09:28:24.094Z,-2.1
2017-01-11T09:29:27.061Z,-2.1
2017-01-11T09:30:30.036Z,-2.1
2017-01-11T09:31:33.510Z,-2.1
2017-01-11T09:32:36.484Z,-2.1
2017-01-11T09:33:39.457Z,-2.1
2017-01-11T09:35:45.841Z,-2
2017-01-11T09:36:48.812Z,-2
2017-01-11T09:37:52.284Z,-2
2017-01-11T09:38:55.281Z,-2
2017-01-11T09:39:58.252Z,-2
2017-01-11T09:41:01.724Z,-2
2017-01-11T09:43:07.601Z,-2
2017-01-11T09:44:11.097Z,-2
2017-01-11T09:45:14.066Z,-2
2017-01-11T09:46:17.033Z,-2
2017-01-11T09:47:20.502Z,-2
2017-01-11T09:48:23.469Z,-2
2017-01-11T09:49:26.440Z,-2
2017-01-11T09:50:29.406Z,-2
2017-01-11T09:51:32.880Z,-2
2017-01-11T09:52:35.851Z,-2
2017-01-11T09:53:38.825Z,-2
2017-01-11T09:54:42.302Z,-2
2017-01-11T09:56:48.184Z,-2
2017-01-11T09:57:51.659Z,-2
2017-01-11T09:58:54.631Z,-2
2017-01-11T09:59:57.599Z,-2
2017-01-11T10:01:01.075Z,-2
2017-01-11T10:02:04.044Z,-2
2017-01-11T10:03:07.015Z,-2
2017-01-11T10:04:10.490Z,-2
2017-01-11T10:05:13.461Z,-1.9
2017-01-11T10:07:19.848Z,-2
2017-01-11T10:08:22.817Z,-2
2017-01-11T10:09:25.793Z,-1.9
2017-01-11T10:10:29.272Z,-1.9
2017-01-11T10:11:32.245Z,-1.9
2017-01-11T10:12:35.214Z,-1.9
2017-01-11T10:13:38.685Z,-1.9
2017-01-11T10:14:41.652Z,-1.9
2017-01-11T10:15:44.623Z,-1.9
2017-01-11T10:16:47.592Z,-1.9
2017-01-11T10:17:51.062Z,-1.9
2017-01-11T10:18:54.028Z,-1.9
2017-01-11T10:19:56.995Z,-1.9
2017-01-11T10:21:00.469Z,-1.9
2017-01-11T10:22:03.610Z,-1.9
2017-01-11T10:23:06.583Z,-1.9
2017-01-11T10:24:09.848Z,-1.8
2017-01-11T10:25:12.822Z,-1.8
2017-01-11T10:26:15.795Z,-1.8
2017-01-11T10:27:19.269Z,-1.8
2017-01-11T10:28:22.410Z,-1.8
2017-01-11T10:29:25.377Z,-1.8
2017-01-11T10:30:28.349Z,-1.8
2017-01-11T10:31:31.825Z,-1.8
2017-01-11T10:32:34.799Z,-1.8
2017-01-11T10:33:37.766Z,-1.8
2017-01-11T10:34:41.244Z,-1.8
2017-01-11T10:35:44.213Z,-1.8
2017-01-11T10:36:47.180Z,-1.8
2017-01-11T10:37:50.652Z,-1.8
2017-01-11T10:38:53.618Z,-1.8
2017-01-11T10:39:56.585Z,-1.8
2017-01-11T10:41:00.056Z,-1.8
2017-01-11T10:42:03.029Z,-1.8
2017-01-11T10:43:05.997Z,-1.8
2017-01-11T10:44:08.972Z,-1.7
2017-01-11T10:45:12.447Z,-1.7
2017-01-11T10:46:15.417Z,-1.7
2017-01-11T10:47:18.394Z,-1.7
2017-01-11T10:48:21.873Z,-1.7
2017-01-11T10:49:24.840Z,-1.7
2017-01-11T10:50:27.810Z,-1.7
2017-01-11T10:51:31.279Z,-1.7
2017-01-11T10:52:34.252Z,-1.7
2017-01-11T10:53:37.251Z,-1.7
2017-01-11T10:54:40.726Z,-1.7
2017-01-11T10:55:43.697Z,-1.7
2017-01-11T10:56:46.665Z,-1.7
2017-01-11T10:57:50.140Z,-1.7
2017-01-11T10:58:53.110Z,-1.7
2017-01-11T10:59:56.080Z,-1.7
2017-01-11T11:00:59.553Z,-1.7
2017-01-11T11:02:02.543Z,-1.7
2017-01-11T11:03:05.520Z,-1.7
2017-01-11T11:04:08.987Z,-1.6
2017-01-11T11:05:11.955Z,-1.6
2017-01-11T11:07:18.341Z,-1.6
2017-01-11T11:08:21.309Z,-1.6
2017-01-11T11:09:24.277Z,-1.6
2017-01-11T11:10:27.749Z,-1.6
2017-01-11T11:11:30.719Z,-1.6
2017-01-11T11:12:33.686Z,-1.6
2017-01-11T11:13:37.164Z,-1.6
2017-01-11T11:14:40.135Z,-1.6
2017-01-11T11:15:43.105Z,-1.6
2017-01-11T11:16:46.577Z,-1.6
2017-01-11T11:17:49.545Z,-1.6
2017-01-11T11:18:52.516Z,-1.6
2017-01-11T11:19:55.989Z,-1.6
2017-01-11T11:20:58.961Z,-1.7
2017-01-11T11:22:01.931Z,-1.6
2017-01-11T11:23:05.404Z,-1.6
2017-01-11T11:24:08.375Z,-1.6
2017-01-11T11:25:11.344Z,-1.6
2017-01-11T11:27:17.731Z,-1.6
2017-01-11T11:28:20.700Z,-1.5
2017-01-11T11:29:24.181Z,-1.5
2017-01-11T11:30:27.157Z,-1.5
2017-01-11T11:31:30.130Z,-1.5
2017-01-11T11:32:33.599Z,-1.5
2017-01-11T11:33:36.566Z,-1.5
2017-01-11T11:34:39.536Z,-1.5
2017-01-11T11:35:43.012Z,-1.5
2017-01-11T11:36:45.989Z,-1.5
2017-01-11T11:37:48.974Z,-1.5
2017-01-11T11:38:52.448Z,-1.5
2017-01-11T11:39:55.419Z,-1.5
2017-01-11T11:40:58.393Z,-1.5
2017-01-11T11:42:01.367Z,-1.5
2017-01-11T11:43:04.843Z,-1.5
2017-01-11T11:44:07.811Z,-1.5
2017-01-11T11:45:10.784Z,-1.5
2017-01-11T11:46:14.280Z,-1.5
2017-01-11T11:47:17.254Z,-1.5
2017-01-11T11:48:20.221Z,-1.5
2017-01-11T11:49:23.695Z,-1.5
2017-01-11T11:50:26.666Z,-1.5
2017-01-11T11:51:29.636Z,-1.5
2017-01-11T11:52:33.107Z,-1.5
2017-01-11T11:53:36.075Z,-1.5
2017-01-11T11:54:39.045Z,-1.5
2017-01-11T11:55:42.522Z,-1.5
2017-01-11T11:56:45.495Z,-1.5
2017-01-11T11:57:48.463Z,-1.5
2017-01-11T11:58:51.937Z,-1.5
2017-01-11T11:59:54.909Z,-1.5
2017-01-11T12:00:57.877Z,-1.5
2017-01-11T12:02:01.352Z,-1.5
2017-01-11T12:03:04.324Z,-1.5
2017-01-11T12:04:07.292Z,-1.5
2017-01-11T12:05:10.766Z,-1.5
2017-01-11T12:06:13.738Z,-1.5
2017-01-11T12:07:17.208Z,-1.5
2017-01-11T12:08:20.176Z,-1.5
2017-01-11T12:09:23.145Z,-1.5
2017-01-11T12:10:26.615Z,-1.5
2017-01-11T12:11:29.583Z,-1.5
2017-01-11T12:12:32.558Z,-1.5
2017-01-11T12:13:36.030Z,-1.5
2017-01-11T12:14:39.001Z,-1.5
2017-01-11T12:15:41.973Z,-1.5
2017-01-11T12:16:45.447Z,-1.6
2017-01-11T12:17:48.417Z,-1.6
2017-01-11T12:18:51.386Z,-1.6
2017-01-11T12:20:57.770Z,-1.6
2017-01-11T12:22:00.736Z,-1.6
2017-01-11T12:23:04.206Z,-1.6
2017-01-11T12:24:07.177Z,-1.6
2017-01-11T12:25:10.147Z,-1.5
2017-01-11T12:26:13.622Z,-1.6
2017-01-11T12:27:16.590Z,-1.5
2017-01-11T12:28:19.561Z,-1.5
2017-01-11T12:29:23.044Z,-1.5
2017-01-11T12:30:26.015Z,-1.5
2017-01-11T12:31:28.990Z,-1.5
2017-01-11T12:32:32.464Z,-1.5
2017-01-11T12:33:35.434Z,-1.5
2017-01-11T12:34:38.402Z,-1.5
2017-01-11T12:35:41.873Z,-1.5
2017-01-11T12:36:44.850Z,-1.5
2017-01-11T12:37:47.822Z,-1.5
2017-01-11T12:38:51.296Z,-1.6
2017-01-11T12:39:54.267Z,-1.6
2017-01-11T12:40:57.235Z,-1.5
2017-01-11T12:42:00.705Z,-1.5
2017-01-11T12:43:03.673Z,-1.5
2017-01-11T12:44:06.646Z,-1.5
2017-01-11T12:45:10.117Z,-1.6
2017-01-11T12:46:13.092Z,-1.6
2017-01-11T12:47:16.061Z,-1.5
2017-01-11T12:48:19.533Z,-1.6
2017-01-11T12:49:22.503Z,-1.5
2017-01-11T12:50:25.473Z,-1.5
2017-01-11T12:51:28.950Z,-1.5
2017-01-11T12:52:31.919Z,-1.5
2017-01-11T12:53:34.895Z,-1.5
2017-01-11T12:54:38.375Z,-1.5
2017-01-11T12:55:41.340Z,-1.5
2017-01-11T12:56:44.314Z,-1.5
2017-01-11T12:57:47.788Z,-1.5
2017-01-11T12:58:50.924Z,-1.5
2017-01-11T12:59:53.895Z,-1.5
2017-01-11T13:00:56.864Z,-1.5
2017-01-11T13:02:00.346Z,-1.5
2017-01-11T13:03:03.319Z,-1.5
2017-01-11T13:04:06.292Z,-1.5
2017-01-11T13:05:09.767Z,-1.5
2017-01-11T13:06:12.736Z,-1.5
2017-01-11T13:07:15.712Z,-1.5
2017-01-11T13:08:18.680Z,-1.5
2017-01-11T13:10:25.060Z,-1.5
2017-01-11T13:11:28.539Z,-1.5
2017-01-11T13:12:31.544Z,-1.5
2017-01-11T13:13:34.516Z,-1.5
2017-01-11T13:14:37.488Z,-1.5
2017-01-11T13:15:40.964Z,-1.5
2017-01-11T13:16:43.940Z,-1.5
2017-01-11T13:17:46.912Z,-1.5
2017-01-11T13:18:50.388Z,-1.5
2017-01-11T13:19:53.367Z,-1.5
2017-01-11T13:20:56.338Z,-1.5
2017-01-11T13:21:59.810Z,-1.5
2017-01-11T13:23:02.782Z,-1.5
2017-01-11T13:24:05.752Z,-1.5
2017-01-11T13:25:09.224Z,-1.5
2017-01-11T13:26:12.194Z,-1.5
2017-01-11T13:27:15.165Z,-1.5
2017-01-11T13:28:18.636Z,-1.5
2017-01-11T13:29:21.614Z,-1.5
2017-01-11T13:30:24.594Z,-1.5
2017-01-11T13:31:28.094Z,-1.5
2017-01-11T13:32:31.063Z,-1.5
2017-01-11T13:33:34.042Z,-1.4
2017-01-11T13:34:37.515Z,-1.4
2017-01-11T13:35:40.485Z,-1.5
2017-01-11T13:36:43.455Z,-1.5
2017-01-11T13:37:46.928Z,-1.5
2017-01-11T13:38:49.903Z,-1.5
2017-01-11T13:39:52.875Z,-1.5
2017-01-11T13:40:56.358Z,-1.5
2017-01-11T13:41:59.332Z,-1.5
2017-01-11T13:43:02.303Z,-1.4
2017-01-11T13:44:05.778Z,-1.4
2017-01-11T13:45:08.751Z,-1.4
2017-01-11T13:46:11.725Z,-1.4
2017-01-11T13:47:15.199Z,-1.4
2017-01-11T13:48:18.179Z,-1.4
2017-01-11T13:49:21.144Z,-1.4
2017-01-11T13:50:24.618Z,-1.4
2017-01-11T13:51:27.592Z,-1.3
2017-01-11T13:52:30.568Z,-1.3
2017-01-11T13:53:33.539Z,-1.3
2017-01-11T13:54:37.039Z,-1.3
2017-01-11T13:55:40.008Z,-1.3
2017-01-11T13:56:42.983Z,-1.3
2017-01-11T13:57:46.484Z,-1.3
2017-01-11T13:58:49.456Z,-1.3
2017-01-11T13:59:52.427Z,-1.3
2017-01-11T14:00:55.903Z,-1.3
2017-01-11T14:01:58.875Z,-1.3
2017-01-11T14:03:01.855Z,-1.3
2017-01-11T14:04:05.333Z,-1.3
2017-01-11T14:05:08.305Z,-1.3
2017-01-11T14:06:11.275Z,-1.3
2017-01-11T14:07:14.752Z,-1.3
2017-01-11T14:08:17.721Z,-1.3
2017-01-11T14:09:20.693Z,-1.3
2017-01-11T14:10:24.173Z,-1.3
2017-01-11T14:11:27.143Z,-1.3
2017-01-11T14:12:30.119Z,-1.3
2017-01-11T14:13:33.591Z,-1.3
2017-01-11T14:14:36.560Z,-1.3
2017-01-11T14:15:39.534Z,-1.3
2017-01-11T14:16:43.015Z,-1.3
2017-01-11T14:17:45.982Z,-1.3
2017-01-11T14:18:48.955Z,-1.3
2017-01-11T14:19:52.436Z,-1.3
2017-01-11T14:20:55.410Z,-1.3
2017-01-11T14:21:58.385Z,-1.2
2017-01-11T14:23:01.861Z,-1.3
2017-01-11T14:24:04.837Z,-1.3
2017-01-11T14:25:07.806Z,-1.3
2017-01-11T14:26:11.281Z,-1.3
2017-01-11T14:27:14.254Z,-1.3
2017-01-11T14:28:17.228Z,-1.3
2017-01-11T14:29:20.701Z,-1.2
2017-01-11T14:30:23.671Z,-1.2
2017-01-11T14:31:26.645Z,-1.2
2017-01-11T14:32:30.121Z,-1.2